createdAt,value
2022-11-09T00:01:03.112Z,98670.19
2022-11-09T00:03:29.637Z,98674.69
2022-11-09T00:06:00.548Z,98678.13
2022-11-09T00:08:27.888Z,98678.94
2022-11-09T00:10:54.453Z,98668.53
2022-11-09T00:13:22.131Z,98675.44
2022-11-09T00:15:49.077Z,98671.09
2022-11-09T00:18:15.623Z,98683.19
2022-11-09T00:20:47.203Z,98678.03
2022-11-09T00:23:15.247Z,98683.06
2022-11-09T00:25:41.793Z,98666.88
2022-11-09T00:28:08.315Z,98681.63
2022-11-09T00:30:34.838Z,98677.34
2022-11-09T00:33:01.340Z,98683.31
2022-11-09T00:35:27.895Z,98680.63
2022-11-09T00:37:54.829Z,98693.50
2022-11-09T00:40:21.376Z,98688.31
2022-11-09T00:42:47.893Z,98683.22
2022-11-09T00:45:14.455Z,98684.94
2022-11-09T00:47:40.990Z,98684.03
2022-11-09T00:50:07.980Z,98685.75
2022-11-09T00:52:34.498Z,98685.81
2022-11-09T00:55:01.133Z,98680.63
2022-11-09T00:57:28.930Z,98681.44
2022-11-09T00:59:55.452Z,98673.81
2022-11-09T01:02:21.968Z,98673.81
2022-11-09T01:04:48.517Z,98673.13
2022-11-09T01:07:15.132Z,98678.13
2022-11-09T01:09:42.151Z,98677.31
2022-11-09T01:12:08.724Z,98675.66
2022-11-09T01:14:35.253Z,98673.81
2022-11-09T01:17:01.755Z,98664.34
2022-11-09T01:19:28.284Z,98667.78
2022-11-09T01:21:54.790Z,98670.28
2022-11-09T01:24:21.337Z,98674.50
2022-11-09T01:26:47.934Z,98660.00
2022-11-09T01:29:14.439Z,98669.25
2022-11-09T01:31:40.978Z,98673.69
2022-11-09T01:34:07.522Z,98673.56
2022-11-09T01:36:34.013Z,98673.56
2022-11-09T01:39:00.999Z,98677.81
2022-11-09T01:41:29.115Z,98675.22
2022-11-09T01:44:19.632Z,98676.91
2022-11-09T01:46:52.013Z,98677.66
2022-11-09T01:49:46.970Z,98676.84
2022-11-09T01:52:18.133Z,98672.56
2022-11-09T01:54:48.409Z,98679.44
2022-11-09T01:57:44.851Z,98678.53
2022-11-09T02:00:14.260Z,98669.88
2022-11-09T02:03:05.273Z,98680.16
2022-11-09T02:05:35.004Z,98671.56
2022-11-09T02:08:05.358Z,98675.81
2022-11-09T02:10:39.773Z,98667.22
2022-11-09T02:13:09.759Z,98668.94
2022-11-09T02:15:39.137Z,98673.19
2022-11-09T02:18:09.567Z,98663.75
2022-11-09T02:20:49.922Z,98661.16
2022-11-09T02:23:17.837Z,98666.34
2022-11-09T02:25:49.455Z,98673.09
2022-11-09T02:28:16.563Z,98673.03
2022-11-09T02:30:46.856Z,98668.75
2022-11-09T02:33:13.351Z,98667.00
2022-11-09T02:35:39.900Z,98663.47
2022-11-09T02:38:09.924Z,98671.22
2022-11-09T02:40:41.022Z,98667.78
2022-11-09T02:43:10.007Z,98664.28
2022-11-09T02:45:36.965Z,98673.72
2022-11-09T02:48:03.912Z,98668.53
2022-11-09T02:50:30.529Z,98666.78
2022-11-09T02:52:57.110Z,98671.03
2022-11-09T02:55:23.628Z,98672.00
2022-11-09T02:57:50.157Z,98670.31
2022-11-09T03:00:17.013Z,98673.81
2022-11-09T03:02:43.615Z,98676.34
2022-11-09T03:05:10.331Z,98669.47
2022-11-09T03:07:36.857Z,98677.22
2022-11-09T03:10:03.837Z,98674.59
2022-11-09T03:12:30.447Z,98680.66
2022-11-09T03:15:02.069Z,98677.16
2022-11-09T03:17:29.010Z,98683.16
2022-11-09T03:19:55.669Z,98676.25
2022-11-09T03:22:22.324Z,98671.94
2022-11-09T03:24:49.011Z,98676.31
2022-11-09T03:27:15.962Z,98672.91
2022-11-09T03:29:42.502Z,98678.13
2022-11-09T03:32:09.739Z,98682.38
2022-11-09T03:34:36.528Z,98680.66
2022-11-09T03:37:03.121Z,98679.81
2022-11-09T03:39:29.659Z,98673.72
2022-11-09T03:41:56.202Z,98677.13
2022-11-09T03:44:22.775Z,98674.53
2022-11-09T03:46:49.266Z,98675.31
2022-11-09T03:49:15.885Z,98677.03
2022-11-09T03:51:42.472Z,98666.69
2022-11-09T03:54:09.046Z,98668.38
2022-11-09T03:56:35.582Z,98662.38
2022-11-09T03:59:02.149Z,98665.78
2022-11-09T04:01:28.704Z,98664.13
2022-11-09T04:03:55.255Z,98656.28
2022-11-09T04:06:21.812Z,98647.63
2022-11-09T04:08:51.357Z,98639.09
2022-11-09T04:11:18.427Z,98643.44
2022-11-09T04:13:44.978Z,98639.09
2022-11-09T04:16:12.411Z,98639.97
2022-11-09T04:18:38.946Z,98637.44
2022-11-09T04:21:05.507Z,98639.97
2022-11-09T04:23:32.071Z,98638.19
2022-11-09T04:25:59.643Z,98634.75
2022-11-09T04:28:26.628Z,98641.59
2022-11-09T04:30:53.295Z,98635.56
2022-11-09T04:33:20.224Z,98648.50
2022-11-09T04:35:46.950Z,98639.88
2022-11-09T04:38:14.557Z,98632.16
2022-11-09T04:40:41.219Z,98635.56
2022-11-09T04:43:11.601Z,98628.69
2022-11-09T04:45:38.152Z,98626.97
2022-11-09T04:48:06.657Z,98626.97
2022-11-09T04:50:34.060Z,98642.41
2022-11-09T04:53:12.112Z,98637.28
2022-11-09T04:55:39.958Z,98639.03
2022-11-09T04:58:07.236Z,98633.88
2022-11-09T05:00:34.933Z,98633.81
2022-11-09T05:03:02.587Z,98635.66
2022-11-09T05:05:29.678Z,98631.28
2022-11-09T05:07:56.525Z,98632.16
2022-11-09T05:10:23.057Z,98624.31
2022-11-09T05:12:49.662Z,98628.69
2022-11-09T05:15:16.309Z,98622.56
2022-11-09T05:17:42.924Z,98621.72
2022-11-09T05:20:10.103Z,98627.75
2022-11-09T05:22:58.668Z,98627.66
2022-11-09T05:25:25.251Z,98632.91
2022-11-09T05:27:52.717Z,98634.53
2022-11-09T05:30:19.732Z,98636.19
2022-11-09T05:32:46.377Z,98643.94
2022-11-09T05:35:13.028Z,98636.13
2022-11-09T05:37:40.053Z,98633.59
2022-11-09T05:40:09.261Z,98635.31
2022-11-09T05:42:39.496Z,98637.09
2022-11-09T05:45:35.576Z,98632.78
2022-11-09T05:47:53.366Z,98631.97
2022-11-09T05:50:19.955Z,98638.00
2022-11-09T05:52:46.471Z,98635.47
2022-11-09T05:55:13.046Z,98642.34
2022-11-09T05:57:39.683Z,98635.47
2022-11-09T06:00:10.844Z,98638.84
2022-11-09T06:02:37.720Z,98633.63
2022-11-09T06:05:04.424Z,98636.22
2022-11-09T06:07:30.934Z,98636.28
2022-11-09T06:09:57.485Z,98635.31
2022-11-09T06:12:24.036Z,98634.44
2022-11-09T06:14:50.547Z,98638.66
2022-11-09T06:17:17.069Z,98636.88
2022-11-09T06:19:43.663Z,98636.88
2022-11-09T06:22:10.244Z,98632.56
2022-11-09T06:24:37.009Z,98638.56
2022-11-09T06:27:03.725Z,98629.00
2022-11-09T06:29:30.259Z,98634.97
2022-11-09T06:31:56.911Z,98630.75
2022-11-09T06:34:23.508Z,98631.56
2022-11-09T06:36:50.151Z,98640.19
2022-11-09T06:39:16.733Z,98642.72
2022-11-09T06:41:47.264Z,98642.63
2022-11-09T06:44:14.218Z,98639.28
2022-11-09T06:46:40.950Z,98648.56
2022-11-09T06:49:08.230Z,98647.66
2022-11-09T06:51:34.764Z,98645.00
2022-11-09T06:54:01.292Z,98643.31
2022-11-09T06:56:28.012Z,98644.16
2022-11-09T06:58:54.644Z,98638.97
2022-11-09T07:01:26.541Z,98640.66
2022-11-09T07:03:53.163Z,98640.66
2022-11-09T07:06:19.680Z,98646.75
2022-11-09T07:08:46.219Z,98651.00
2022-11-09T07:11:16.284Z,98648.31
2022-11-09T07:13:43.154Z,98643.00
2022-11-09T07:16:12.026Z,98639.38
2022-11-09T07:18:38.811Z,98640.97
2022-11-09T07:21:08.851Z,98646.09
2022-11-09T07:23:39.568Z,98642.56
2022-11-09T07:26:06.174Z,98646.69
2022-11-09T07:28:32.724Z,98637.97
2022-11-09T07:30:59.490Z,98652.63
2022-11-09T07:33:26.632Z,98642.28
2022-11-09T07:35:53.400Z,98626.75
2022-11-09T07:38:20.009Z,98625.91
2022-11-09T07:40:46.735Z,98626.63
2022-11-09T07:43:13.328Z,98628.34
2022-11-09T07:45:40.575Z,98631.81
2022-11-09T07:48:10.195Z,98621.47
2022-11-09T07:50:38.801Z,98625.63
2022-11-09T07:53:07.328Z,98623.81
2022-11-09T07:55:34.782Z,98621.19
2022-11-09T07:58:21.570Z,98621.19
2022-11-09T08:00:48.145Z,98617.69
2022-11-09T08:03:14.663Z,98610.72
2022-11-09T08:05:41.331Z,98605.53
2022-11-09T08:08:10.519Z,98612.44
2022-11-09T08:10:37.551Z,98615.78
2022-11-09T08:13:10.625Z,98609.84
2022-11-09T08:15:38.412Z,98611.47
2022-11-09T08:18:08.567Z,98612.34
2022-11-09T08:20:35.406Z,98615.78
2022-11-09T08:23:04.761Z,98615.72
2022-11-09T08:25:33.494Z,98613.09
2022-11-09T08:28:00.209Z,98618.16
2022-11-09T08:30:27.250Z,98612.13
2022-11-09T08:32:53.790Z,98612.00
2022-11-09T08:35:22.867Z,98603.31
2022-11-09T08:37:51.275Z,98608.38
2022-11-09T08:40:23.604Z,98604.84
2022-11-09T08:42:50.936Z,98603.91
2022-11-09T08:45:18.123Z,98607.28
2022-11-09T08:47:45.663Z,98607.19
2022-11-09T08:50:14.564Z,98607.19
2022-11-09T08:52:41.145Z,98601.16
2022-11-09T08:55:08.203Z,98611.63
2022-11-09T08:57:35.016Z,98620.25
2022-11-09T09:00:01.595Z,98621.03
2022-11-09T09:02:28.161Z,98615.88
2022-11-09T09:04:54.661Z,98621.88
2022-11-09T09:07:21.292Z,98619.16
2022-11-09T09:09:48.006Z,98616.59
2022-11-09T09:12:14.606Z,98621.63
2022-11-09T09:14:41.146Z,98624.22
2022-11-09T09:17:07.722Z,98621.63
2022-11-09T09:19:34.846Z,98620.78
2022-11-09T09:22:01.622Z,98620.66
2022-11-09T09:24:28.503Z,98618.13
2022-11-09T09:26:55.402Z,98619.03
2022-11-09T09:29:21.971Z,98626.88
2022-11-09T09:31:48.525Z,98632.00
2022-11-09T09:34:15.272Z,98632.00
2022-11-09T09:36:47.317Z,98628.50
2022-11-09T09:39:14.851Z,98630.16
2022-11-09T09:41:50.555Z,98634.44
2022-11-09T09:44:32.531Z,98629.25
2022-11-09T09:47:11.955Z,98635.22
2022-11-09T09:49:46.238Z,98631.84
2022-11-09T09:52:25.973Z,98635.34
2022-11-09T09:55:08.311Z,98640.69
2022-11-09T09:57:41.511Z,98642.72
2022-11-09T10:00:15.924Z,98646.00
2022-11-09T10:02:43.271Z,98649.50
2022-11-09T10:05:15.467Z,98652.16
2022-11-09T10:08:17.694Z,98644.50
2022-11-09T10:10:59.714Z,98644.44
2022-11-09T10:13:50.931Z,98639.19
2022-11-09T10:16:34.727Z,98629.53
2022-11-09T10:19:51.146Z,98630.34
2022-11-09T10:22:26.550Z,98620.78
2022-11-09T10:25:27.369Z,98612.91
2022-11-09T10:27:57.573Z,98622.22
2022-11-09T10:30:25.949Z,98614.50
2022-11-09T10:32:56.367Z,98612.69
2022-11-09T10:35:41.231Z,98613.75
2022-11-09T10:38:15.770Z,98614.44
2022-11-09T10:41:00.658Z,98601.66
2022-11-09T10:43:27.175Z,98600.53
2022-11-09T10:46:06.288Z,98589.22
2022-11-09T10:48:35.805Z,98582.38
2022-11-09T10:51:03.053Z,98587.38
2022-11-09T10:53:31.656Z,98584.34
2022-11-09T10:56:04.190Z,98597.56
2022-11-09T10:58:38.045Z,98602.25
2022-11-09T11:01:13.678Z,98589.78
2022-11-09T11:03:42.016Z,98594.66
2022-11-09T11:06:23.565Z,98594.53
2022-11-09T11:09:12.779Z,98597.91
2022-11-09T11:11:40.097Z,98596.88
2022-11-09T11:14:31.999Z,98595.97
2022-11-09T11:16:59.069Z,98600.94
2022-11-09T11:19:37.092Z,98605.78
2022-11-09T11:22:12.565Z,98600.50
2022-11-09T11:24:43.035Z,98598.09
2022-11-09T11:27:18.072Z,98609.41
2022-11-09T11:29:55.085Z,98604.34
2022-11-09T11:32:23.705Z,98602.69
2022-11-09T11:35:05.484Z,98595.34
2022-11-09T11:38:07.258Z,98585.97
2022-11-09T11:40:43.965Z,98586.88
2022-11-09T11:43:27.704Z,98586.19
2022-11-09T11:46:09.441Z,98588.00
2022-11-09T11:48:50.945Z,98589.13
2022-11-09T11:51:30.271Z,98592.75
2022-11-09T11:54:12.432Z,98587.81
2022-11-09T11:56:59.463Z,98593.50
2022-11-09T11:59:44.464Z,98590.16
2022-11-09T12:02:23.216Z,98594.47
2022-11-09T12:05:01.711Z,98590.03
2022-11-09T12:07:34.256Z,98588.56
2022-11-09T12:10:45.498Z,98591.94
2022-11-09T12:14:09.165Z,98592.28
2022-11-09T12:17:13.939Z,98597.56
2022-11-09T12:20:03.343Z,98588.78
2022-11-09T12:22:29.990Z,98592.38
2022-11-09T12:25:22.610Z,98588.13
2022-11-09T12:28:01.464Z,98586.41
2022-11-09T12:31:06.571Z,98581.91
2022-11-09T12:33:45.500Z,98585.16
2022-11-09T12:36:31.376Z,98587.66
2022-11-09T12:39:10.768Z,98584.22
2022-11-09T12:41:38.628Z,98580.41
2022-11-09T12:44:25.425Z,98576.66
2022-11-09T12:47:06.983Z,98579.41
2022-11-09T12:49:38.335Z,98579.41
2022-11-09T12:52:11.780Z,98583.75
2022-11-09T12:54:42.709Z,98578.81
2022-11-09T12:57:22.828Z,98581.34
2022-11-09T12:59:52.147Z,98581.28
2022-11-09T13:02:34.939Z,98578.81
2022-11-09T13:05:08.468Z,98589.13
2022-11-09T13:07:50.021Z,98586.81
2022-11-09T13:10:34.968Z,98585.66
2022-11-09T13:13:04.363Z,98586.66
2022-11-09T13:15:34.174Z,98586.34
2022-11-09T13:18:25.957Z,98593.38
2022-11-09T13:20:56.031Z,98585.72
2022-11-09T13:26:47.852Z,98584.59
2022-11-09T13:29:25.675Z,98586.19
2022-11-09T13:32:04.638Z,98585.28
2022-11-09T13:34:40.119Z,98592.94
2022-11-09T13:37:40.705Z,98588.00
2022-11-09T13:40:48.542Z,98582.00
2022-11-09T13:43:17.884Z,98583.81
2022-11-09T13:45:56.552Z,98582.13
2022-11-09T13:48:41.347Z,98579.66
2022-11-09T13:51:21.514Z,98583.00
2022-11-09T13:53:56.008Z,98575.28
2022-11-09T13:56:37.905Z,98581.41
2022-11-09T13:59:13.421Z,98581.47
2022-11-09T14:01:48.990Z,98589.25
2022-11-09T14:04:24.560Z,98586.75
2022-11-09T14:07:03.959Z,98594.59
2022-11-09T14:10:09.415Z,98583.38
2022-11-09T14:12:46.794Z,98583.69
2022-11-09T14:15:29.020Z,98582.00
2022-11-09T14:18:10.810Z,98586.19
2022-11-09T14:21:00.578Z,98592.22
2022-11-09T14:23:32.095Z,98586.97
2022-11-09T14:25:58.682Z,98586.13
2022-11-09T14:28:31.064Z,98588.78
2022-11-09T14:30:57.816Z,98590.59
2022-11-09T14:33:35.562Z,98590.78
2022-11-09T14:36:04.919Z,98583.41
2022-11-09T14:38:36.580Z,98586.38
2022-11-09T14:41:03.881Z,98582.84
2022-11-09T14:43:43.144Z,98587.22
2022-11-09T14:46:30.775Z,98590.72
2022-11-09T14:49:00.636Z,98588.13
2022-11-09T14:51:35.537Z,98588.38
2022-11-09T14:54:02.751Z,98590.94
2022-11-09T14:56:30.652Z,98585.66
2022-11-09T14:58:58.074Z,98584.72
2022-11-09T15:01:27.071Z,98581.22
2022-11-09T15:04:20.260Z,98587.97
2022-11-09T15:06:56.164Z,98586.38
2022-11-09T15:09:44.724Z,98585.53
2022-11-09T15:12:16.112Z,98579.59
2022-11-09T15:14:43.080Z,98578.63
2022-11-09T15:17:15.129Z,98580.09
2022-11-09T15:19:57.162Z,98583.41
2022-11-09T15:22:52.997Z,98586.88
2022-11-09T15:25:19.516Z,98592.81
2022-11-09T15:27:58.068Z,98580.78
2022-11-09T15:30:33.451Z,98583.31
2022-11-09T15:33:00.843Z,98579.22
2022-11-09T15:35:28.130Z,98584.78
2022-11-09T15:37:55.730Z,98578.47
2022-11-09T15:40:24.793Z,98584.09
2022-11-09T15:42:51.532Z,98586.31
2022-11-09T15:45:21.142Z,98585.28
2022-11-09T15:47:54.456Z,98586.38
2022-11-09T15:50:24.968Z,98583.19
2022-11-09T15:52:51.686Z,98587.63
2022-11-09T15:55:24.413Z,98585.16
2022-11-09T15:57:52.528Z,98586.22
2022-11-09T16:00:21.449Z,98586.25
2022-11-09T16:02:48.591Z,98582.91
2022-11-09T16:05:15.883Z,98579.66
2022-11-09T16:07:49.899Z,98592.72
2022-11-09T16:10:20.228Z,98592.78
2022-11-09T16:12:47.497Z,98595.41
2022-11-09T16:15:14.322Z,98604.06
2022-11-09T16:17:41.035Z,98605.75
2022-11-09T16:20:08.002Z,98608.00
2022-11-09T16:22:34.809Z,98606.19
2022-11-09T16:25:01.441Z,98604.44
2022-11-09T16:27:49.134Z,98601.78
2022-11-09T16:30:15.630Z,98601.75
2022-11-09T16:32:42.213Z,98608.69
2022-11-09T16:35:26.130Z,98614.16
2022-11-09T16:37:55.275Z,98619.22
2022-11-09T16:40:23.118Z,98613.19
2022-11-09T16:42:51.966Z,98619.09
2022-11-09T16:45:20.389Z,98620.03
2022-11-09T16:47:53.979Z,98620.84
2022-11-09T16:50:20.555Z,98625.13
2022-11-09T16:52:47.145Z,98626.84
2022-11-09T16:55:13.683Z,98635.47
2022-11-09T16:57:40.629Z,98632.00
2022-11-09T17:00:08.483Z,98639.81
2022-11-09T17:02:35.150Z,98638.94
2022-11-09T17:05:01.775Z,98633.78
2022-11-09T17:07:28.691Z,98646.72
2022-11-09T17:09:55.189Z,98634.66
2022-11-09T17:12:21.950Z,98634.69
2022-11-09T17:14:48.598Z,98639.88
2022-11-09T17:17:21.299Z,98638.19
2022-11-09T17:19:49.698Z,98637.34
2022-11-09T17:22:16.899Z,98639.91
2022-11-09T17:24:43.556Z,98639.09
2022-11-09T17:27:11.608Z,98644.22
2022-11-09T17:29:38.861Z,98651.06
2022-11-09T17:32:06.982Z,98653.69
2022-11-09T17:34:34.146Z,98661.50
2022-11-09T17:37:04.753Z,98662.28
2022-11-09T17:39:32.411Z,98666.59
2022-11-09T17:41:58.968Z,98668.28
2022-11-09T17:44:25.503Z,98670.91
2022-11-09T17:46:52.213Z,98670.94
2022-11-09T17:49:18.799Z,98670.91
2022-11-09T17:51:45.307Z,98670.41
2022-11-09T17:54:12.004Z,98672.78
2022-11-09T17:56:38.588Z,98664.97
2022-11-09T17:59:05.611Z,98661.50
2022-11-09T18:01:37.883Z,98664.03
2022-11-09T18:04:07.441Z,98663.19
2022-11-09T18:06:34.187Z,98664.91
2022-11-09T18:09:39.154Z,98658.00
2022-11-09T18:11:47.939Z,98660.25
2022-11-09T18:14:15.971Z,98660.06
2022-11-09T18:16:42.622Z,98656.56
2022-11-09T18:19:09.158Z,98661.66
2022-11-09T18:21:35.696Z,98650.34
2022-11-09T18:24:02.430Z,98650.50
2022-11-09T18:26:29.193Z,98650.41
2022-11-09T18:28:56.883Z,98652.09
2022-11-09T18:31:23.701Z,98647.72
2022-11-09T18:33:50.938Z,98650.31
2022-11-09T18:36:19.772Z,98640.81
2022-11-09T18:38:47.032Z,98637.38
2022-11-09T18:41:17.716Z,98634.78
2022-11-09T18:43:45.122Z,98629.63
2022-11-09T18:46:14.108Z,98636.53
2022-11-09T18:48:40.971Z,98636.56
2022-11-09T18:51:08.997Z,98633.94
2022-11-09T18:53:40.870Z,98632.25
2022-11-09T18:56:23.457Z,98630.53
2022-11-09T18:58:52.958Z,98634.13
2022-11-09T19:01:20.317Z,98639.28
2022-11-09T19:03:47.006Z,98645.31
2022-11-09T19:06:16.761Z,98645.28
2022-11-09T19:09:02.366Z,98646.94
2022-11-09T19:11:30.120Z,98641.78
2022-11-09T19:13:56.654Z,98639.34
2022-11-09T19:16:24.855Z,98648.81
2022-11-09T19:18:51.709Z,98641.06
2022-11-09T19:21:21.283Z,98654.00
2022-11-09T19:23:47.868Z,98648.97
2022-11-09T19:26:14.450Z,98653.28
2022-11-09T19:28:41.032Z,98655.06
2022-11-09T19:31:11.948Z,98668.00
2022-11-09T19:33:38.481Z,98668.13
2022-11-09T19:36:29.228Z,98667.25
2022-11-09T19:38:52.247Z,98667.88
2022-11-09T19:41:18.855Z,98671.50
2022-11-09T19:43:49.369Z,98678.56
2022-11-09T19:46:16.506Z,98683.94
2022-11-09T19:48:47.235Z,98679.50
2022-11-09T19:51:15.407Z,98674.13
2022-11-09T19:53:42.744Z,98669.66
2022-11-09T19:56:09.758Z,98666.19
2022-11-09T19:58:36.327Z,98669.59
2022-11-09T20:01:08.301Z,98673.25
2022-11-09T20:03:35.469Z,98666.59
2022-11-09T20:06:04.192Z,98663.34
2022-11-09T20:08:36.578Z,98670.31
2022-11-09T20:11:08.112Z,98667.91
2022-11-09T20:13:36.860Z,98663.66
2022-11-09T20:16:12.081Z,98656.94
2022-11-09T20:18:39.547Z,98662.81
2022-11-09T20:21:09.100Z,98661.88
2022-11-09T20:23:35.658Z,98666.44
2022-11-09T20:26:06.771Z,98665.66
2022-11-09T20:28:33.645Z,98664.72
2022-11-09T20:31:00.201Z,98667.50
2022-11-09T20:33:26.780Z,98664.28
2022-11-09T20:35:54.427Z,98664.25
2022-11-09T20:38:22.100Z,98666.88
2022-11-09T20:40:56.768Z,98659.13
2022-11-09T20:43:24.637Z,98658.22
2022-11-09T20:45:51.590Z,98661.66
2022-11-09T20:48:38.767Z,98662.06
2022-11-09T20:51:07.043Z,98661.13
2022-11-09T20:53:34.083Z,98662.81
2022-11-09T20:56:01.081Z,98669.09
2022-11-09T20:58:27.757Z,98671.94
2022-11-09T21:01:01.872Z,98667.81
2022-11-09T21:03:28.499Z,98671.44
2022-11-09T21:05:59.666Z,98665.59
2022-11-09T21:08:27.160Z,98666.50
2022-11-09T21:10:54.128Z,98668.06
2022-11-09T21:13:21.415Z,98662.75
2022-11-09T21:15:48.434Z,98669.53
2022-11-09T21:18:15.163Z,98663.66
2022-11-09T21:20:42.017Z,98659.50
2022-11-09T21:23:13.188Z,98665.72
2022-11-09T21:26:02.460Z,98660.63
2022-11-09T21:28:47.843Z,98666.44
2022-11-09T21:31:14.536Z,98662.19
2022-11-09T21:33:41.482Z,98666.56
2022-11-09T21:36:14.264Z,98672.69
2022-11-09T21:38:40.958Z,98666.72
2022-11-09T21:41:27.770Z,98669.16
2022-11-09T21:43:55.363Z,98665.13
2022-11-09T21:46:23.460Z,98669.53
2022-11-09T21:48:50.754Z,98667.72
2022-11-09T21:51:17.339Z,98668.44
2022-11-09T21:53:43.876Z,98671.13
2022-11-09T21:56:10.430Z,98671.19
2022-11-09T21:58:36.955Z,98681.59
2022-11-09T22:01:08.570Z,98680.88
2022-11-09T22:03:35.459Z,98687.00
2022-11-09T22:06:02.156Z,98688.59
2022-11-09T22:08:28.773Z,98687.00
2022-11-09T22:11:06.072Z,98691.25
2022-11-09T22:13:51.739Z,98682.56
2022-11-09T22:16:19.980Z,98687.63
2022-11-09T22:19:05.692Z,98693.63
2022-11-09T22:21:32.962Z,98691.91
2022-11-09T22:24:00.812Z,98695.09
2022-11-09T22:26:29.022Z,98691.59
2022-11-09T22:28:57.370Z,98697.84
2022-11-09T22:31:24.448Z,98698.75
2022-11-09T22:33:51.759Z,98697.13
2022-11-09T22:36:19.073Z,98696.97
2022-11-09T22:38:46.899Z,98696.78
2022-11-09T22:41:14.911Z,98693.22
2022-11-09T22:43:43.722Z,98699.94
2022-11-09T22:46:15.478Z,98707.66
2022-11-09T22:48:43.554Z,98704.22
2022-11-09T22:51:12.645Z,98717.03
2022-11-09T22:53:39.616Z,98722.47
2022-11-09T22:56:06.441Z,98731.25
2022-11-09T22:58:32.991Z,98718.56
2022-11-09T23:01:07.142Z,98711.00
2022-11-09T23:03:34.684Z,98716.25
2022-11-09T23:06:03.461Z,98711.22
2022-11-09T23:08:34.105Z,98707.22
2022-11-09T23:11:07.887Z,98724.50
2022-11-09T23:13:35.056Z,98715.88
2022-11-09T23:16:05.072Z,98714.06
2022-11-09T23:18:51.012Z,98720.06
2022-11-09T23:21:18.388Z,98723.56
2022-11-09T23:23:45.152Z,98706.09
2022-11-09T23:26:12.083Z,98705.09
2022-11-09T23:28:38.648Z,98705.75
2022-11-09T23:31:09.304Z,98705.53
2022-11-09T23:33:36.097Z,98702.78
2022-11-09T23:36:04.300Z,98710.44
2022-11-09T23:38:35.742Z,98713.78
2022-11-09T23:41:06.428Z,98720.56
2022-11-09T23:43:33.312Z,98724.88
2022-11-09T23:46:08.329Z,98723.09
2022-11-09T23:48:35.360Z,98718.72
2022-11-09T23:51:03.303Z,98725.59
2022-11-09T23:53:31.596Z,98724.75
2022-11-09T23:56:03.340Z,98726.50
2022-11-09T23:58:30.343Z,98728.19
